sensor_id;sensor_type;location;lat;lon;timestamp;P1;durP1;ratioP1;P2;durP2;ratioP2
22705;SDS011;11520;51.198;4.468;2022-10-16T00:02:23;2.17;;;1.23;;
22705;SDS011;11520;51.198;4.468;2022-10-16T00:04:49;2.03;;;1.20;;
22705;SDS011;11520;51.198;4.468;2022-10-16T00:07:17;1.73;;;1.10;;
22705;SDS011;11520;51.198;4.468;2022-10-16T00:09:45;4.00;;;1.10;;
22705;SDS011;11520;51.198;4.468;2022-10-16T00:12:12;2.67;;;1.00;;
22705;SDS011;11520;51.198;4.468;2022-10-16T00:14:40;2.30;;;1.08;;
22705;SDS011;11520;51.198;4.468;2022-10-16T00:17:07;4.70;;;0.95;;
22705;SDS011;11520;51.198;4.468;2022-10-16T00:19:33;1.40;;;0.90;;
22705;SDS011;11520;51.198;4.468;2022-10-16T00:21:58;1.48;;;0.95;;
22705;SDS011;11520;51.198;4.468;2022-10-16T00:24:24;5.40;;;1.38;;
22705;SDS011;11520;51.198;4.468;2022-10-16T00:26:50;1.42;;;0.82;;
22705;SDS011;11520;51.198;4.468;2022-10-16T00:29:17;1.48;;;1.00;;
22705;SDS011;11520;51.198;4.468;2022-10-16T00:31:42;1.77;;;0.70;;
22705;SDS011;11520;51.198;4.468;2022-10-16T00:34:08;1.75;;;1.02;;
22705;SDS011;11520;51.198;4.468;2022-10-16T00:36:34;2.75;;;0.93;;
22705;SDS011;11520;51.198;4.468;2022-10-16T00:39:00;3.88;;;1.20;;
22705;SDS011;11520;51.198;4.468;2022-10-16T00:41:26;3.90;;;0.85;;
22705;SDS011;11520;51.198;4.468;2022-10-16T00:43:53;1.92;;;0.98;;
22705;SDS011;11520;51.198;4.468;2022-10-16T00:46:36;4.10;;;0.90;;
22705;SDS011;11520;51.198;4.468;2022-10-16T00:49:14;2.65;;;1.00;;
22705;SDS011;11520;51.198;4.468;2022-10-16T00:51:45;1.67;;;0.68;;
22705;SDS011;11520;51.198;4.468;2022-10-16T00:54:16;0.75;;;0.60;;
22705;SDS011;11520;51.198;4.468;2022-10-16T00:56:50;1.58;;;0.80;;
22705;SDS011;11520;51.198;4.468;2022-10-16T00:59:22;3.15;;;1.00;;
22705;SDS011;11520;51.198;4.468;2022-10-16T01:01:54;1.58;;;1.00;;
22705;SDS011;11520;51.198;4.468;2022-10-16T01:04:20;2.33;;;0.90;;
22705;SDS011;11520;51.198;4.468;2022-10-16T01:12:53;3.15;;;0.95;;
22705;SDS011;11520;51.198;4.468;2022-10-16T01:15:32;2.55;;;0.90;;
22705;SDS011;11520;51.198;4.468;2022-10-16T01:21:01;1.65;;;0.82;;
22705;SDS011;11520;51.198;4.468;2022-10-16T01:29:34;3.65;;;1.08;;
22705;SDS011;11520;51.198;4.468;2022-10-16T01:37:50;1.05;;;0.80;;
22705;SDS011;11520;51.198;4.468;2022-10-16T01:40:26;2.28;;;1.08;;
22705;SDS011;11520;51.198;4.468;2022-10-16T01:42:58;1.70;;;0.85;;
22705;SDS011;11520;51.198;4.468;2022-10-16T01:45:32;4.18;;;1.08;;
22705;SDS011;11520;51.198;4.468;2022-10-16T01:48:00;0.98;;;0.82;;
22705;SDS011;11520;51.198;4.468;2022-10-16T01:50:32;1.25;;;0.90;;
22705;SDS011;11520;51.198;4.468;2022-10-16T01:53:02;2.13;;;1.08;;
22705;SDS011;11520;51.198;4.468;2022-10-16T01:55:37;2.83;;;0.93;;
22705;SDS011;11520;51.198;4.468;2022-10-16T01:58:07;3.58;;;1.10;;
22705;SDS011;11520;51.198;4.468;2022-10-16T02:00:37;2.25;;;0.60;;
22705;SDS011;11520;51.198;4.468;2022-10-16T02:03:05;1.20;;;0.75;;
22705;SDS011;11520;51.198;4.468;2022-10-16T02:05:37;1.05;;;0.80;;
22705;SDS011;11520;51.198;4.468;2022-10-16T02:08:11;3.83;;;1.00;;
22705;SDS011;11520;51.198;4.468;2022-10-16T02:10:37;1.83;;;0.98;;
22705;SDS011;11520;51.198;4.468;2022-10-16T02:13:11;2.05;;;0.98;;
22705;SDS011;11520;51.198;4.468;2022-10-16T02:15:41;2.13;;;1.15;;
22705;SDS011;11520;51.198;4.468;2022-10-16T02:18:06;3.83;;;1.00;;
22705;SDS011;11520;51.198;4.468;2022-10-16T02:20:40;2.88;;;0.93;;
22705;SDS011;11520;51.198;4.468;2022-10-16T02:23:41;1.65;;;1.10;;
22705;SDS011;11520;51.198;4.468;2022-10-16T02:26:13;3.35;;;1.00;;
22705;SDS011;11520;51.198;4.468;2022-10-16T02:28:47;1.83;;;1.15;;
22705;SDS011;11520;51.198;4.468;2022-10-16T02:31:18;1.90;;;0.90;;
22705;SDS011;11520;51.198;4.468;2022-10-16T02:33:51;2.15;;;1.10;;
22705;SDS011;11520;51.198;4.468;2022-10-16T02:36:19;3.70;;;1.40;;
22705;SDS011;11520;51.198;4.468;2022-10-16T02:38:46;2.00;;;1.10;;
22705;SDS011;11520;51.198;4.468;2022-10-16T02:41:14;2.03;;;1.00;;
22705;SDS011;11520;51.198;4.468;2022-10-16T02:43:40;3.42;;;1.30;;
22705;SDS011;11520;51.198;4.468;2022-10-16T02:46:05;3.60;;;1.10;;
22705;SDS011;11520;51.198;4.468;2022-10-16T02:48:31;4.95;;;1.42;;
22705;SDS011;11520;51.198;4.468;2022-10-16T02:50:58;1.58;;;1.00;;
22705;SDS011;11520;51.198;4.468;2022-10-16T02:53:23;2.35;;;1.42;;
22705;SDS011;11520;51.198;4.468;2022-10-16T02:55:50;3.35;;;1.00;;
22705;SDS011;11520;51.198;4.468;2022-10-16T02:58:16;2.67;;;1.30;;
22705;SDS011;11520;51.198;4.468;2022-10-16T03:00:43;4.85;;;1.25;;
22705;SDS011;11520;51.198;4.468;2022-10-16T03:03:08;1.80;;;1.20;;
22705;SDS011;11520;51.198;4.468;2022-10-16T03:05:34;3.13;;;1.30;;
22705;SDS011;11520;51.198;4.468;2022-10-16T03:07:59;2.17;;;1.52;;
22705;SDS011;11520;51.198;4.468;2022-10-16T03:10:25;2.40;;;1.30;;
22705;SDS011;11520;51.198;4.468;2022-10-16T03:12:53;5.32;;;1.50;;
22705;SDS011;11520;51.198;4.468;2022-10-16T03:15:21;4.80;;;1.40;;
22705;SDS011;11520;51.198;4.468;2022-10-16T03:17:48;4.53;;;1.27;;
22705;SDS011;11520;51.198;4.468;2022-10-16T03:20:14;2.50;;;1.27;;
22705;SDS011;11520;51.198;4.468;2022-10-16T03:22:39;2.45;;;1.45;;
22705;SDS011;11520;51.198;4.468;2022-10-16T03:25:05;3.67;;;1.30;;
22705;SDS011;11520;51.198;4.468;2022-10-16T03:27:31;2.60;;;1.45;;
22705;SDS011;11520;51.198;4.468;2022-10-16T03:29:57;3.78;;;1.58;;
22705;SDS011;11520;51.198;4.468;2022-10-16T03:32:23;3.40;;;1.50;;
22705;SDS011;11520;51.198;4.468;2022-10-16T03:34:50;1.60;;;1.30;;
22705;SDS011;11520;51.198;4.468;2022-10-16T03:37:16;2.80;;;1.20;;
22705;SDS011;11520;51.198;4.468;2022-10-16T03:39:43;2.47;;;1.10;;
22705;SDS011;11520;51.198;4.468;2022-10-16T03:42:08;3.17;;;1.60;;
22705;SDS011;11520;51.198;4.468;2022-10-16T03:44:34;4.30;;;1.67;;
22705;SDS011;11520;51.198;4.468;2022-10-16T03:47:00;3.35;;;1.40;;
22705;SDS011;11520;51.198;4.468;2022-10-16T03:49:26;2.15;;;1.38;;
22705;SDS011;11520;51.198;4.468;2022-10-16T03:51:52;1.67;;;1.15;;
22705;SDS011;11520;51.198;4.468;2022-10-16T03:54:20;1.98;;;1.35;;
22705;SDS011;11520;51.198;4.468;2022-10-16T03:56:47;2.90;;;1.23;;
22705;SDS011;11520;51.198;4.468;2022-10-16T03:59:13;3.30;;;2.10;;
22705;SDS011;11520;51.198;4.468;2022-10-16T04:01:42;4.57;;;1.48;;
22705;SDS011;11520;51.198;4.468;2022-10-16T04:04:08;3.72;;;1.35;;
22705;SDS011;11520;51.198;4.468;2022-10-16T04:06:33;3.55;;;1.27;;
22705;SDS011;11520;51.198;4.468;2022-10-16T04:08:59;3.00;;;1.50;;
22705;SDS011;11520;51.198;4.468;2022-10-16T04:11:24;4.05;;;1.60;;
22705;SDS011;11520;51.198;4.468;2022-10-16T04:13:50;2.28;;;1.40;;
22705;SDS011;11520;51.198;4.468;2022-10-16T04:16:16;2.17;;;1.70;;
22705;SDS011;11520;51.198;4.468;2022-10-16T04:18:41;1.80;;;1.30;;
22705;SDS011;11520;51.198;4.468;2022-10-16T04:21:09;2.58;;;1.27;;
22705;SDS011;11520;51.198;4.468;2022-10-16T04:23:34;3.72;;;1.55;;
22705;SDS011;11520;51.198;4.468;2022-10-16T04:26:01;1.90;;;1.30;;
22705;SDS011;11520;51.198;4.468;2022-10-16T04:30:59;2.45;;;1.45;;
22705;SDS011;11520;51.198;4.468;2022-10-16T04:33:24;3.28;;;1.35;;
22705;SDS011;11520;51.198;4.468;2022-10-16T04:35:55;4.75;;;1.92;;
22705;SDS011;11520;51.198;4.468;2022-10-16T04:38:24;3.92;;;1.65;;
22705;SDS011;11520;51.198;4.468;2022-10-16T04:40:52;2.88;;;1.23;;
22705;SDS011;11520;51.198;4.468;2022-10-16T04:43:17;3.88;;;1.85;;
22705;SDS011;11520;51.198;4.468;2022-10-16T04:45:43;3.28;;;1.63;;
22705;SDS011;11520;51.198;4.468;2022-10-16T04:48:10;3.15;;;1.80;;
22705;SDS011;11520;51.198;4.468;2022-10-16T04:50:35;2.17;;;1.58;;
22705;SDS011;11520;51.198;4.468;2022-10-16T04:53:01;5.40;;;1.45;;
22705;SDS011;11520;51.198;4.468;2022-10-16T04:55:28;8.38;;;1.88;;
22705;SDS011;11520;51.198;4.468;2022-10-16T04:57:53;3.33;;;1.92;;
22705;SDS011;11520;51.198;4.468;2022-10-16T05:00:19;7.05;;;2.00;;
22705;SDS011;11520;51.198;4.468;2022-10-16T05:02:45;2.70;;;1.70;;
22705;SDS011;11520;51.198;4.468;2022-10-16T05:05:10;4.50;;;1.70;;
22705;SDS011;11520;51.198;4.468;2022-10-16T05:07:36;5.65;;;1.95;;
22705;SDS011;11520;51.198;4.468;2022-10-16T05:10:03;2.38;;;1.77;;
22705;SDS011;11520;51.198;4.468;2022-10-16T05:12:30;3.22;;;1.63;;
22705;SDS011;11520;51.198;4.468;2022-10-16T05:14:56;3.38;;;2.03;;
22705;SDS011;11520;51.198;4.468;2022-10-16T05:17:23;6.38;;;1.83;;
22705;SDS011;11520;51.198;4.468;2022-10-16T05:19:50;9.38;;;2.20;;
22705;SDS011;11520;51.198;4.468;2022-10-16T05:22:15;2.55;;;1.80;;
22705;SDS011;11520;51.198;4.468;2022-10-16T05:24:43;5.72;;;1.77;;
22705;SDS011;11520;51.198;4.468;2022-10-16T05:27:09;3.85;;;1.58;;
22705;SDS011;11520;51.198;4.468;2022-10-16T05:29:36;2.88;;;2.03;;
22705;SDS011;11520;51.198;4.468;2022-10-16T05:32:08;4.13;;;2.10;;
22705;SDS011;11520;51.198;4.468;2022-10-16T05:37:09;4.03;;;2.00;;
22705;SDS011;11520;51.198;4.468;2022-10-16T05:39:36;4.00;;;1.75;;
22705;SDS011;11520;51.198;4.468;2022-10-16T05:42:05;3.85;;;2.05;;
22705;SDS011;11520;51.198;4.468;2022-10-16T05:44:33;4.72;;;2.40;;
22705;SDS011;11520;51.198;4.468;2022-10-16T05:46:59;3.70;;;2.17;;
22705;SDS011;11520;51.198;4.468;2022-10-16T05:49:25;4.22;;;2.00;;
22705;SDS011;11520;51.198;4.468;2022-10-16T05:51:52;3.88;;;1.83;;
22705;SDS011;11520;51.198;4.468;2022-10-16T05:54:19;2.97;;;2.15;;
22705;SDS011;11520;51.198;4.468;2022-10-16T05:56:44;4.65;;;1.92;;
22705;SDS011;11520;51.198;4.468;2022-10-16T05:59:12;4.50;;;1.90;;
22705;SDS011;11520;51.198;4.468;2022-10-16T06:01:38;4.22;;;1.60;;
22705;SDS011;11520;51.198;4.468;2022-10-16T06:04:14;4.30;;;2.10;;
22705;SDS011;11520;51.198;4.468;2022-10-16T06:06:52;4.10;;;1.95;;
22705;SDS011;11520;51.198;4.468;2022-10-16T06:11:50;4.28;;;2.05;;
22705;SDS011;11520;51.198;4.468;2022-10-16T06:14:16;6.07;;;1.90;;
22705;SDS011;11520;51.198;4.468;2022-10-16T06:19:17;5.20;;;1.83;;
22705;SDS011;11520;51.198;4.468;2022-10-16T06:21:48;5.93;;;2.13;;
22705;SDS011;11520;51.198;4.468;2022-10-16T06:24:14;3.17;;;2.08;;
22705;SDS011;11520;51.198;4.468;2022-10-16T06:26:48;4.97;;;1.95;;
22705;SDS011;11520;51.198;4.468;2022-10-16T06:29:27;2.90;;;1.88;;
22705;SDS011;11520;51.198;4.468;2022-10-16T06:31:56;2.65;;;1.58;;
22705;SDS011;11520;51.198;4.468;2022-10-16T06:34:21;4.90;;;2.00;;
22705;SDS011;11520;51.198;4.468;2022-10-16T06:39:18;4.93;;;2.00;;
22705;SDS011;11520;51.198;4.468;2022-10-16T06:41:47;11.82;;;2.10;;
22705;SDS011;11520;51.198;4.468;2022-10-16T06:44:13;3.30;;;1.70;;
22705;SDS011;11520;51.198;4.468;2022-10-16T06:46:40;4.22;;;1.90;;
22705;SDS011;11520;51.198;4.468;2022-10-16T06:49:05;3.53;;;1.98;;
22705;SDS011;11520;51.198;4.468;2022-10-16T06:51:32;4.45;;;2.28;;
22705;SDS011;11520;51.198;4.468;2022-10-16T06:54:07;6.28;;;2.15;;
22705;SDS011;11520;51.198;4.468;2022-10-16T06:56:33;5.90;;;1.73;;
22705;SDS011;11520;51.198;4.468;2022-10-16T06:59:00;3.38;;;1.80;;
22705;SDS011;11520;51.198;4.468;2022-10-16T07:01:27;5.57;;;1.77;;
22705;SDS011;11520;51.198;4.468;2022-10-16T07:03:53;7.00;;;2.15;;
22705;SDS011;11520;51.198;4.468;2022-10-16T07:06:20;4.78;;;2.00;;
22705;SDS011;11520;51.198;4.468;2022-10-16T07:08:47;2.97;;;1.60;;
22705;SDS011;11520;51.198;4.468;2022-10-16T07:11:18;3.90;;;1.98;;
22705;SDS011;11520;51.198;4.468;2022-10-16T07:13:46;4.22;;;2.00;;
22705;SDS011;11520;51.198;4.468;2022-10-16T07:16:13;3.25;;;1.50;;
22705;SDS011;11520;51.198;4.468;2022-10-16T07:18:43;7.03;;;2.20;;
22705;SDS011;11520;51.198;4.468;2022-10-16T07:21:19;5.03;;;2.10;;
22705;SDS011;11520;51.198;4.468;2022-10-16T07:23:56;5.35;;;2.05;;
22705;SDS011;11520;51.198;4.468;2022-10-16T07:26:33;4.05;;;1.80;;
22705;SDS011;11520;51.198;4.468;2022-10-16T07:29:02;6.78;;;1.77;;
22705;SDS011;11520;51.198;4.468;2022-10-16T07:31:30;6.43;;;2.13;;
22705;SDS011;11520;51.198;4.468;2022-10-16T07:33:58;2.88;;;1.33;;
22705;SDS011;11520;51.198;4.468;2022-10-16T07:36:25;4.72;;;1.38;;
22705;SDS011;11520;51.198;4.468;2022-10-16T07:38:53;2.78;;;1.30;;
22705;SDS011;11520;51.198;4.468;2022-10-16T07:41:21;2.30;;;1.17;;
22705;SDS011;11520;51.198;4.468;2022-10-16T07:43:48;6.03;;;1.70;;
22705;SDS011;11520;51.198;4.468;2022-10-16T07:46:18;3.55;;;1.55;;
22705;SDS011;11520;51.198;4.468;2022-10-16T07:48:45;3.88;;;1.20;;
22705;SDS011;11520;51.198;4.468;2022-10-16T07:51:14;2.42;;;1.23;;
22705;SDS011;11520;51.198;4.468;2022-10-16T07:53:47;3.67;;;1.15;;
22705;SDS011;11520;51.198;4.468;2022-10-16T07:56:15;3.05;;;1.00;;
22705;SDS011;11520;51.198;4.468;2022-10-16T07:58:45;1.77;;;1.00;;
22705;SDS011;11520;51.198;4.468;2022-10-16T08:01:13;4.43;;;1.13;;
22705;SDS011;11520;51.198;4.468;2022-10-16T08:03:46;3.17;;;0.90;;
22705;SDS011;11520;51.198;4.468;2022-10-16T08:06:14;1.35;;;0.73;;
22705;SDS011;11520;51.198;4.468;2022-10-16T08:08:40;3.08;;;1.10;;
22705;SDS011;11520;51.198;4.468;2022-10-16T08:11:07;7.00;;;1.40;;
22705;SDS011;11520;51.198;4.468;2022-10-16T08:13:36;4.45;;;1.10;;
22705;SDS011;11520;51.198;4.468;2022-10-16T08:16:02;3.97;;;1.10;;
22705;SDS011;11520;51.198;4.468;2022-10-16T08:18:33;4.68;;;1.00;;
22705;SDS011;11520;51.198;4.468;2022-10-16T08:21:01;18.98;;;3.47;;
22705;SDS011;11520;51.198;4.468;2022-10-16T08:23:29;175.77;;;18.05;;
22705;SDS011;11520;51.198;4.468;2022-10-16T08:25:55;65.20;;;6.60;;
22705;SDS011;11520;51.198;4.468;2022-10-16T08:37:24;5.82;;;1.20;;
22705;SDS011;11520;51.198;4.468;2022-10-16T08:39:57;7.50;;;1.48;;
22705;SDS011;11520;51.198;4.468;2022-10-16T08:48:54;2.70;;;0.90;;
22705;SDS011;11520;51.198;4.468;2022-10-16T08:51:26;4.15;;;0.90;;
22705;SDS011;11520;51.198;4.468;2022-10-16T08:57:16;2.58;;;1.08;;
22705;SDS011;11520;51.198;4.468;2022-10-16T08:59:49;4.68;;;1.00;;
22705;SDS011;11520;51.198;4.468;2022-10-16T09:10:58;2.53;;;0.82;;
22705;SDS011;11520;51.198;4.468;2022-10-16T09:13:58;5.95;;;1.10;;
22705;SDS011;11520;51.198;4.468;2022-10-16T09:16:47;4.07;;;1.02;;
22705;SDS011;11520;51.198;4.468;2022-10-16T09:21:53;4.32;;;0.95;;
22705;SDS011;11520;51.198;4.468;2022-10-16T09:26:53;3.83;;;0.70;;
22705;SDS011;11520;51.198;4.468;2022-10-16T09:29:20;2.67;;;0.80;;
22705;SDS011;11520;51.198;4.468;2022-10-16T09:31:51;8.73;;;1.23;;
22705;SDS011;11520;51.198;4.468;2022-10-16T09:37:19;5.93;;;1.50;;
22705;SDS011;11520;51.198;4.468;2022-10-16T09:39:53;6.53;;;0.93;;
22705;SDS011;11520;51.198;4.468;2022-10-16T09:42:34;4.70;;;1.20;;
22705;SDS011;11520;51.198;4.468;2022-10-16T09:45:01;2.60;;;0.90;;
22705;SDS011;11520;51.198;4.468;2022-10-16T09:47:36;4.78;;;1.02;;
22705;SDS011;11520;51.198;4.468;2022-10-16T09:50:29;4.40;;;1.00;;
22705;SDS011;11520;51.198;4.468;2022-10-16T09:56:01;2.53;;;0.77;;
22705;SDS011;11520;51.198;4.468;2022-10-16T09:58:37;6.75;;;1.20;;
22705;SDS011;11520;51.198;4.468;2022-10-16T10:07:18;5.47;;;1.08;;
22705;SDS011;11520;51.198;4.468;2022-10-16T10:10:03;5.63;;;1.20;;
22705;SDS011;11520;51.198;4.468;2022-10-16T10:12:31;6.80;;;1.50;;
22705;SDS011;11520;51.198;4.468;2022-10-16T10:15:11;5.93;;;0.98;;
22705;SDS011;11520;51.198;4.468;2022-10-16T10:34:49;7.63;;;1.80;;
22705;SDS011;11520;51.198;4.468;2022-10-16T10:46:03;6.47;;;1.17;;
22705;SDS011;11520;51.198;4.468;2022-10-16T10:57:10;7.45;;;1.42;;
22705;SDS011;11520;51.198;4.468;2022-10-16T11:00:02;4.97;;;1.27;;
22705;SDS011;11520;51.198;4.468;2022-10-16T11:05:43;5.78;;;0.85;;
22705;SDS011;11520;51.198;4.468;2022-10-16T11:08:41;10.40;;;1.92;;
22705;SDS011;11520;51.198;4.468;2022-10-16T11:11:11;7.38;;;1.17;;
22705;SDS011;11520;51.198;4.468;2022-10-16T11:14:01;5.07;;;1.00;;
22705;SDS011;11520;51.198;4.468;2022-10-16T11:22:30;4.68;;;1.00;;
22705;SDS011;11520;51.198;4.468;2022-10-16T11:27:47;5.28;;;0.95;;
22705;SDS011;11520;51.198;4.468;2022-10-16T11:30:24;8.93;;;1.23;;
22705;SDS011;11520;51.198;4.468;2022-10-16T11:32:54;4.40;;;1.10;;
22705;SDS011;11520;51.198;4.468;2022-10-16T11:35:44;4.10;;;1.07;;
22705;SDS011;11520;51.198;4.468;2022-10-16T11:41:23;4.68;;;0.85;;
22705;SDS011;11520;51.198;4.468;2022-10-16T11:49:20;5.63;;;1.17;;
22705;SDS011;11520;51.198;4.468;2022-10-16T11:52:00;7.97;;;1.33;;
22705;SDS011;11520;51.198;4.468;2022-10-16T11:54:59;5.10;;;0.98;;
22705;SDS011;11520;51.198;4.468;2022-10-16T11:57:39;7.45;;;1.35;;
22705;SDS011;11520;51.198;4.468;2022-10-16T12:00:21;7.32;;;1.30;;
22705;SDS011;11520;51.198;4.468;2022-10-16T12:08:45;4.32;;;1.20;;
22705;SDS011;11520;51.198;4.468;2022-10-16T12:19:56;5.10;;;1.00;;
22705;SDS011;11520;51.198;4.468;2022-10-16T12:22:49;8.00;;;1.45;;
22705;SDS011;11520;51.198;4.468;2022-10-16T12:28:16;20.20;;;2.40;;
22705;SDS011;11520;51.198;4.468;2022-10-16T12:31:03;23.52;;;2.15;;
22705;SDS011;11520;51.198;4.468;2022-10-16T12:33:41;12.38;;;1.60;;
22705;SDS011;11520;51.198;4.468;2022-10-16T12:36:34;20.65;;;2.42;;
22705;SDS011;11520;51.198;4.468;2022-10-16T12:39:00;8.95;;;1.50;;
22705;SDS011;11520;51.198;4.468;2022-10-16T12:41:27;3.50;;;1.15;;
22705;SDS011;11520;51.198;4.468;2022-10-16T12:43:55;4.07;;;1.00;;
22705;SDS011;11520;51.198;4.468;2022-10-16T12:46:23;5.40;;;0.90;;
22705;SDS011;11520;51.198;4.468;2022-10-16T12:54:14;3.92;;;0.80;;
22705;SDS011;11520;51.198;4.468;2022-10-16T13:25:25;6.70;;;1.05;;
22705;SDS011;11520;51.198;4.468;2022-10-16T13:28:06;4.07;;;1.00;;
22705;SDS011;11520;51.198;4.468;2022-10-16T13:30:37;2.10;;;0.90;;
22705;SDS011;11520;51.198;4.468;2022-10-16T13:33:16;4.90;;;0.60;;
22705;SDS011;11520;51.198;4.468;2022-10-16T13:35:52;2.25;;;0.68;;
22705;SDS011;11520;51.198;4.468;2022-10-16T13:38:26;4.28;;;0.70;;
22705;SDS011;11520;51.198;4.468;2022-10-16T13:41:05;3.20;;;0.63;;
22705;SDS011;11520;51.198;4.468;2022-10-16T13:43:47;4.60;;;0.70;;
22705;SDS011;11520;51.198;4.468;2022-10-16T13:46:19;4.65;;;0.65;;
22705;SDS011;11520;51.198;4.468;2022-10-16T13:48:58;2.60;;;0.40;;
22705;SDS011;11520;51.198;4.468;2022-10-16T13:51:30;3.13;;;0.52;;
22705;SDS011;11520;51.198;4.468;2022-10-16T13:53:58;2.55;;;0.52;;
22705;SDS011;11520;51.198;4.468;2022-10-16T13:56:25;2.42;;;0.70;;
22705;SDS011;11520;51.198;4.468;2022-10-16T13:59:04;2.72;;;0.50;;
22705;SDS011;11520;51.198;4.468;2022-10-16T14:01:49;3.25;;;0.70;;
22705;SDS011;11520;51.198;4.468;2022-10-16T14:04:23;4.03;;;0.70;;
22705;SDS011;11520;51.198;4.468;2022-10-16T14:06:50;2.22;;;0.55;;
22705;SDS011;11520;51.198;4.468;2022-10-16T14:12:01;8.82;;;0.68;;
22705;SDS011;11520;51.198;4.468;2022-10-16T14:14:40;2.20;;;0.80;;
22705;SDS011;11520;51.198;4.468;2022-10-16T14:17:18;3.45;;;0.77;;
22705;SDS011;11520;51.198;4.468;2022-10-16T14:19:52;2.70;;;0.90;;
22705;SDS011;11520;51.198;4.468;2022-10-16T14:22:24;3.80;;;0.88;;
22705;SDS011;11520;51.198;4.468;2022-10-16T14:30:34;2.97;;;0.77;;
22705;SDS011;11520;51.198;4.468;2022-10-16T14:33:03;6.35;;;1.30;;
22705;SDS011;11520;51.198;4.468;2022-10-16T14:44:22;2.88;;;0.80;;
22705;SDS011;11520;51.198;4.468;2022-10-16T14:47:06;2.92;;;1.45;;
22705;SDS011;11520;51.198;4.468;2022-10-16T14:49:38;2.47;;;0.73;;
22705;SDS011;11520;51.198;4.468;2022-10-16T14:52:08;4.57;;;1.00;;
22705;SDS011;11520;51.198;4.468;2022-10-16T14:54:36;2.30;;;0.70;;
22705;SDS011;11520;51.198;4.468;2022-10-16T14:57:15;2.20;;;0.65;;
22705;SDS011;11520;51.198;4.468;2022-10-16T14:59:53;3.42;;;0.80;;
22705;SDS011;11520;51.198;4.468;2022-10-16T15:02:31;1.58;;;0.50;;
22705;SDS011;11520;51.198;4.468;2022-10-16T15:08:02;2.13;;;0.70;;
22705;SDS011;11520;51.198;4.468;2022-10-16T15:10:47;2.05;;;0.60;;
22705;SDS011;11520;51.198;4.468;2022-10-16T15:13:19;4.35;;;0.82;;
22705;SDS011;11520;51.198;4.468;2022-10-16T15:15:47;2.97;;;0.55;;
22705;SDS011;11520;51.198;4.468;2022-10-16T15:18:18;3.13;;;0.70;;
22705;SDS011;11520;51.198;4.468;2022-10-16T15:20:49;1.23;;;0.50;;
22705;SDS011;11520;51.198;4.468;2022-10-16T15:23:17;4.07;;;0.60;;
22705;SDS011;11520;51.198;4.468;2022-10-16T15:25:51;2.88;;;0.80;;
22705;SDS011;11520;51.198;4.468;2022-10-16T15:28:20;1.48;;;0.70;;
22705;SDS011;11520;51.198;4.468;2022-10-16T15:30:51;1.33;;;0.65;;
22705;SDS011;11520;51.198;4.468;2022-10-16T15:33:27;2.58;;;0.63;;
22705;SDS011;11520;51.198;4.468;2022-10-16T15:36:01;2.53;;;0.75;;
22705;SDS011;11520;51.198;4.468;2022-10-16T15:38:28;3.38;;;0.77;;
22705;SDS011;11520;51.198;4.468;2022-10-16T15:40:54;2.90;;;0.93;;
22705;SDS011;11520;51.198;4.468;2022-10-16T15:43:22;4.28;;;0.82;;
22705;SDS011;11520;51.198;4.468;2022-10-16T15:46:03;3.25;;;1.20;;
22705;SDS011;11520;51.198;4.468;2022-10-16T15:48:31;4.38;;;0.70;;
22705;SDS011;11520;51.198;4.468;2022-10-16T15:50:58;3.28;;;0.85;;
22705;SDS011;11520;51.198;4.468;2022-10-16T15:53:34;4.85;;;1.13;;
22705;SDS011;11520;51.198;4.468;2022-10-16T15:56:03;2.22;;;0.90;;
22705;SDS011;11520;51.198;4.468;2022-10-16T15:58:31;3.95;;;1.55;;
22705;SDS011;11520;51.198;4.468;2022-10-16T16:00:57;3.42;;;1.15;;
22705;SDS011;11520;51.198;4.468;2022-10-16T16:03:26;2.65;;;1.40;;
22705;SDS011;11520;51.198;4.468;2022-10-16T16:05:53;2.83;;;1.00;;
22705;SDS011;11520;51.198;4.468;2022-10-16T16:08:20;2.42;;;1.10;;
22705;SDS011;11520;51.198;4.468;2022-10-16T16:13:48;4.65;;;1.30;;
22705;SDS011;11520;51.198;4.468;2022-10-16T16:16:16;2.45;;;1.30;;
22705;SDS011;11520;51.198;4.468;2022-10-16T16:18:47;3.45;;;1.38;;
22705;SDS011;11520;51.198;4.468;2022-10-16T16:21:20;2.47;;;1.02;;
22705;SDS011;11520;51.198;4.468;2022-10-16T16:23:53;4.05;;;1.40;;
22705;SDS011;11520;51.198;4.468;2022-10-16T16:26:27;5.03;;;1.25;;
22705;SDS011;11520;51.198;4.468;2022-10-16T16:29:26;5.88;;;2.22;;
22705;SDS011;11520;51.198;4.468;2022-10-16T16:31:53;4.05;;;1.80;;
22705;SDS011;11520;51.198;4.468;2022-10-16T16:34:24;7.38;;;1.80;;
22705;SDS011;11520;51.198;4.468;2022-10-16T16:36:55;6.68;;;2.45;;
22705;SDS011;11520;51.198;4.468;2022-10-16T16:39:23;4.88;;;1.75;;
22705;SDS011;11520;51.198;4.468;2022-10-16T16:41:50;5.57;;;2.15;;
22705;SDS011;11520;51.198;4.468;2022-10-16T16:44:16;4.82;;;2.17;;
22705;SDS011;11520;51.198;4.468;2022-10-16T16:46:42;5.90;;;2.53;;
22705;SDS011;11520;51.198;4.468;2022-10-16T16:49:12;4.43;;;1.95;;
22705;SDS011;11520;51.198;4.468;2022-10-16T16:51:39;7.03;;;2.75;;
22705;SDS011;11520;51.198;4.468;2022-10-16T16:54:09;3.83;;;2.17;;
22705;SDS011;11520;51.198;4.468;2022-10-16T16:56:37;7.63;;;3.53;;
22705;SDS011;11520;51.198;4.468;2022-10-16T16:59:04;4.38;;;2.30;;
22705;SDS011;11520;51.198;4.468;2022-10-16T17:01:30;6.30;;;2.45;;
22705;SDS011;11520;51.198;4.468;2022-10-16T17:06:32;5.80;;;2.50;;
22705;SDS011;11520;51.198;4.468;2022-10-16T17:09:02;6.68;;;2.60;;
22705;SDS011;11520;51.198;4.468;2022-10-16T17:14:28;8.95;;;3.10;;
22705;SDS011;11520;51.198;4.468;2022-10-16T17:16:58;5.68;;;2.78;;
22705;SDS011;11520;51.198;4.468;2022-10-16T17:19:24;6.47;;;2.80;;
22705;SDS011;11520;51.198;4.468;2022-10-16T17:21:53;6.90;;;2.90;;
22705;SDS011;11520;51.198;4.468;2022-10-16T17:24:21;7.55;;;3.40;;
22705;SDS011;11520;51.198;4.468;2022-10-16T17:26:47;5.60;;;2.47;;
22705;SDS011;11520;51.198;4.468;2022-10-16T17:29:14;5.70;;;3.20;;
22705;SDS011;11520;51.198;4.468;2022-10-16T17:31:45;6.50;;;3.63;;
22705;SDS011;11520;51.198;4.468;2022-10-16T17:34:13;7.68;;;2.40;;
22705;SDS011;11520;51.198;4.468;2022-10-16T17:36:40;10.45;;;3.55;;
22705;SDS011;11520;51.198;4.468;2022-10-16T17:39:11;8.02;;;4.03;;
22705;SDS011;11520;51.198;4.468;2022-10-16T17:41:39;9.82;;;4.50;;
22705;SDS011;11520;51.198;4.468;2022-10-16T17:44:28;9.32;;;5.35;;
22705;SDS011;11520;51.198;4.468;2022-10-16T17:47:01;6.88;;;3.55;;
22705;SDS011;11520;51.198;4.468;2022-10-16T17:50:07;6.28;;;2.72;;
22705;SDS011;11520;51.198;4.468;2022-10-16T17:52:34;7.05;;;2.90;;
22705;SDS011;11520;51.198;4.468;2022-10-16T17:55:06;10.88;;;4.75;;
22705;SDS011;11520;51.198;4.468;2022-10-16T17:57:37;10.70;;;4.43;;
22705;SDS011;11520;51.198;4.468;2022-10-16T18:05:10;7.82;;;4.80;;
22705;SDS011;11520;51.198;4.468;2022-10-16T18:07:56;11.05;;;3.97;;
22705;SDS011;11520;51.198;4.468;2022-10-16T18:10:22;8.23;;;3.63;;
22705;SDS011;11520;51.198;4.468;2022-10-16T18:12:49;8.65;;;3.80;;
22705;SDS011;11520;51.198;4.468;2022-10-16T18:15:17;8.25;;;3.67;;
22705;SDS011;11520;51.198;4.468;2022-10-16T18:17:44;7.18;;;4.20;;
22705;SDS011;11520;51.198;4.468;2022-10-16T18:20:10;7.25;;;3.67;;
22705;SDS011;11520;51.198;4.468;2022-10-16T18:25:48;8.93;;;3.67;;
22705;SDS011;11520;51.198;4.468;2022-10-16T18:41:13;8.80;;;4.57;;
22705;SDS011;11520;51.198;4.468;2022-10-16T18:44:00;7.90;;;4.47;;
22705;SDS011;11520;51.198;4.468;2022-10-16T18:46:27;7.70;;;4.05;;
22705;SDS011;11520;51.198;4.468;2022-10-16T18:49:04;10.50;;;4.72;;
22705;SDS011;11520;51.198;4.468;2022-10-16T18:51:59;9.82;;;4.25;;
22705;SDS011;11520;51.198;4.468;2022-10-16T18:54:34;8.50;;;3.92;;
22705;SDS011;11520;51.198;4.468;2022-10-16T18:57:03;9.93;;;4.97;;
22705;SDS011;11520;51.198;4.468;2022-10-16T18:59:47;9.25;;;4.35;;
22705;SDS011;11520;51.198;4.468;2022-10-16T19:02:14;12.38;;;4.95;;
22705;SDS011;11520;51.198;4.468;2022-10-16T19:04:44;9.20;;;4.43;;